Stella Ada — 9V9082 — position and weather

sailwx.info

Track history (hours):
 
Tides and Currents Weather Stations Pressure Air Temp Water Temp Dewpoint Dewpoint Depression Visibility Wind Speed Wind Dir Waves Ship Positions

Stella Ada

Last reported at 2017-Jan-12 21:31 UTC. Time now 2017-Jan-21 04:29 UTC.
Position N 38°15' E 121°33'.
Warning: this ship's position is 8 days out of date.

Length 296 m; draft 9 m.

Type: Cargo ship. MMSI: 566089000.

Date/timePositionNaut miles runAvg speedWind from/ knotsBaromVisibWave heightAir tempDewpointWater temp
2017-Jan-12 21:31N 38°15' E 121°33'1313.3
2017-Jan-12 20:33N 38°21' E 121°19'1313.0
2017-Jan-12 19:32N 38°28' E 121°04'1212.2
2017-Jan-12 18:33N 38°33' E 120°50'1212.1
2017-Jan-12 17:34N 38°35' E 120°35'1211.6
2017-Jan-12 16:31N 38°37' E 120°20'  
2017-Jan-06 03:33N 38°39' E 120°35'1110.9
2017-Jan-06 02:33N 38°37' E 120°48'9 9.3
2017-Jan-06 01:33N 38°35' E 120°60'1211.5
2017-Jan-06 00:33N 38°29' E 121°13'1411.8
2017-Jan-05 23:24N 38°25' E 121°29'1512.0
2017-Jan-05 22:08N 38°20' E 121°48'2111.9
2017-Jan-05 20:22N 38°13' E 122°13'  
Track history (hours):
 
Tides and Currents Weather Stations Pressure Air Temp Water Temp Dewpoint Dewpoint Depression Visibility Wind Speed Wind Dir Waves Ship Positions

Stella Ada

Last reported at 2017-Jan-12 21:31 UTC. Time now 2017-Jan-21 04:29 UTC.
Position N 38°15' E 121°33'.
Warning: this ship's position is 8 days out of date.

Length 296 m; draft 9 m.

Type: Cargo ship. MMSI: 566089000.

Date/timePositionNaut miles runAvg speedWind from/ knotsBaromVisibWave heightAir tempDewpointWater temp
2017-Jan-12 21:31N 38°15' E 121°33'1313.3
2017-Jan-12 20:33N 38°21' E 121°19'1313.0
2017-Jan-12 19:32N 38°28' E 121°04'1212.2
2017-Jan-12 18:33N 38°33' E 120°50'1212.1
2017-Jan-12 17:34N 38°35' E 120°35'1211.6
2017-Jan-12 16:31N 38°37' E 120°20'  
2017-Jan-06 03:33N 38°39' E 120°35'1110.9
2017-Jan-06 02:33N 38°37' E 120°48'9 9.3
2017-Jan-06 01:33N 38°35' E 120°60'1211.5
2017-Jan-06 00:33N 38°29' E 121°13'1411.8
2017-Jan-05 23:24N 38°25' E 121°29'1512.0
2017-Jan-05 22:08N 38°20' E 121°48'2111.9
2017-Jan-05 20:22N 38°13' E 122°13'  

Dump ship's entire track history